createdAt,value
2023-08-22T00:01:57.962Z,24.16
2023-08-22T00:04:28.381Z,24.13
2023-08-22T00:06:57.491Z,24.09
2023-08-22T00:09:28.260Z,24.02
2023-08-22T00:11:56.766Z,24.01
2023-08-22T00:14:25.886Z,24.04
2023-08-22T00:16:56.095Z,24.04
2023-08-22T00:19:24.700Z,24.04
2023-08-22T00:21:52.573Z,24.05
2023-08-22T00:24:21.397Z,24.02
2023-08-22T00:26:50.691Z,24.01
2023-08-22T00:29:21.834Z,23.95
2023-08-22T00:31:49.967Z,23.90
2023-08-22T00:34:18.407Z,23.83
2023-08-22T00:36:46.704Z,23.80
2023-08-22T00:39:14.955Z,23.75
2023-08-22T00:41:43.335Z,23.67
2023-08-22T00:44:12.838Z,23.61
2023-08-22T00:46:41.436Z,23.59
2023-08-22T00:49:11.596Z,23.58
2023-08-22T00:51:40.957Z,23.55
2023-08-22T00:54:09.737Z,23.50
2023-08-22T00:56:39.252Z,23.48
2023-08-22T00:59:08.333Z,23.46
2023-08-22T01:01:38.243Z,23.46
2023-08-22T01:04:09.572Z,23.40
2023-08-22T01:06:48.989Z,23.31
2023-08-22T01:09:28.396Z,23.30
2023-08-22T01:12:04.836Z,23.24
2023-08-22T01:14:38.799Z,23.22
2023-08-22T01:17:13.003Z,23.24
2023-08-22T01:19:43.657Z,23.21
2023-08-22T01:22:16.400Z,23.18
2023-08-22T01:24:44.708Z,23.07
2023-08-22T01:27:16.959Z,23.07
2023-08-22T01:30:02.255Z,23.03
2023-08-22T01:32:36.231Z,23.04
2023-08-22T01:35:08.099Z,23.05
2023-08-22T01:37:38.960Z,23.04
2023-08-22T01:40:11.477Z,23.06
2023-08-22T01:42:41.491Z,22.99
2023-08-22T01:45:11.532Z,22.94
2023-08-22T01:47:40.125Z,22.92
2023-08-22T01:50:12.539Z,22.86
2023-08-22T01:52:42.462Z,22.80
2023-08-22T01:55:12.697Z,22.81
2023-08-22T01:57:41.319Z,22.76
2023-08-22T02:00:17.101Z,22.76
2023-08-22T02:02:46.036Z,22.69
2023-08-22T02:05:14.282Z,22.68
2023-08-22T02:07:46.875Z,22.66
2023-08-22T02:10:15.240Z,22.66
2023-08-22T02:12:43.996Z,22.62
2023-08-22T02:15:12.744Z,22.61
2023-08-22T02:17:42.222Z,22.57
2023-08-22T02:20:11.994Z,22.53
2023-08-22T02:22:41.504Z,22.52
2023-08-22T02:25:12.503Z,22.50
2023-08-22T02:27:40.851Z,22.52
2023-08-22T02:30:13.259Z,22.49
2023-08-22T02:32:41.944Z,22.48
2023-08-22T02:35:10.777Z,22.49
2023-08-22T02:37:42.332Z,22.45
2023-08-22T02:40:13.735Z,22.48
2023-08-22T02:42:42.881Z,22.46
2023-08-22T02:45:12.342Z,22.48
2023-08-22T02:47:40.747Z,22.50
2023-08-22T02:50:10.190Z,22.52
2023-08-22T02:52:38.734Z,22.48
2023-08-22T02:55:09.617Z,22.48
2023-08-22T02:57:39.378Z,22.48
2023-08-22T03:00:12.482Z,22.45
2023-08-22T03:02:41.941Z,22.44
2023-08-22T03:05:14.109Z,22.40
2023-08-22T03:07:43.743Z,22.36
2023-08-22T03:10:15.320Z,22.33
2023-08-22T03:12:48.169Z,22.32
2023-08-22T03:15:19.249Z,22.31
2023-08-22T03:17:50.097Z,22.32
2023-08-22T03:20:21.551Z,22.34
2023-08-22T03:22:53.208Z,22.32
2023-08-22T03:25:22.427Z,22.31
2023-08-22T03:27:56.789Z,22.34
2023-08-22T03:30:26.046Z,22.39
2023-08-22T03:32:54.273Z,22.32
2023-08-22T03:35:22.707Z,22.30
2023-08-22T03:37:51.062Z,22.29
2023-08-22T03:40:19.542Z,22.27
2023-08-22T03:42:49.604Z,22.26
2023-08-22T03:45:19.524Z,22.22
2023-08-22T03:47:48.969Z,22.21
2023-08-22T03:50:19.325Z,22.17
2023-08-22T03:52:50.412Z,22.14
2023-08-22T03:55:18.642Z,22.06
2023-08-22T03:57:49.945Z,22.09
2023-08-22T04:00:22.130Z,22.02
2023-08-22T04:02:57.692Z,22.00
2023-08-22T04:05:30.897Z,21.99
2023-08-22T04:07:59.457Z,21.98
2023-08-22T04:10:27.867Z,21.97
2023-08-22T04:12:57.138Z,21.91
2023-08-22T04:15:26.751Z,21.89
2023-08-22T04:17:54.662Z,21.87
2023-08-22T04:20:25.362Z,21.86
2023-08-22T04:22:56.721Z,21.86
2023-08-22T04:25:26.006Z,21.83
2023-08-22T04:28:00.913Z,21.79
2023-08-22T04:30:31.385Z,21.82
2023-08-22T04:33:01.051Z,21.80
2023-08-22T04:35:32.832Z,21.75
2023-08-22T04:38:02.199Z,21.72
2023-08-22T04:40:31.206Z,21.70
2023-08-22T04:43:07.267Z,21.70
2023-08-22T04:45:45.604Z,21.73
2023-08-22T04:48:16.296Z,21.70
2023-08-22T04:50:45.004Z,21.73
2023-08-22T04:53:14.210Z,21.71
2023-08-22T04:55:44.483Z,21.70
2023-08-22T04:58:13.002Z,21.70
2023-08-22T05:00:43.642Z,21.75
2023-08-22T05:03:16.507Z,21.76
2023-08-22T05:05:48.499Z,21.75
2023-08-22T05:08:16.714Z,21.78
2023-08-22T05:10:45.973Z,21.81
2023-08-22T05:13:16.012Z,21.88
2023-08-22T05:15:52.416Z,21.91
2023-08-22T05:18:22.933Z,21.92
2023-08-22T05:20:54.198Z,21.96
2023-08-22T05:23:25.106Z,22.01
2023-08-22T05:25:54.789Z,22.02
2023-08-22T05:28:48.951Z,22.06
2023-08-22T05:31:22.437Z,22.14
2023-08-22T05:33:52.612Z,22.24
2023-08-22T05:36:23.123Z,22.34
2023-08-22T05:38:54.137Z,22.46
2023-08-22T05:41:23.331Z,22.58
2023-08-22T05:43:56.439Z,22.70
2023-08-22T05:46:29.098Z,22.78
2023-08-22T05:48:57.832Z,22.86
2023-08-22T05:51:26.376Z,22.94
2023-08-22T05:54:00.065Z,23.00
2023-08-22T05:56:29.635Z,23.02
2023-08-22T05:58:57.828Z,23.04
2023-08-22T06:01:28.252Z,23.04
2023-08-22T06:03:57.773Z,23.07
2023-08-22T06:06:27.369Z,23.09
2023-08-22T06:08:58.222Z,23.14
2023-08-22T06:11:26.263Z,23.18
2023-08-22T06:13:57.209Z,23.20
2023-08-22T06:16:25.352Z,23.20
2023-08-22T06:18:53.691Z,23.27
2023-08-22T06:21:23.254Z,23.31
2023-08-22T06:23:51.939Z,23.35
2023-08-22T06:26:21.958Z,23.38
2023-08-22T06:28:52.989Z,23.41
2023-08-22T06:31:21.587Z,23.46
2023-08-22T06:33:50.225Z,23.50
2023-08-22T06:36:20.953Z,23.52
2023-08-22T06:38:50.785Z,23.58
2023-08-22T06:41:19.519Z,23.62
2023-08-22T06:43:48.961Z,23.70
2023-08-22T06:46:23.854Z,23.75
2023-08-22T06:48:58.800Z,23.80
2023-08-22T06:51:27.619Z,23.87
2023-08-22T06:53:57.217Z,23.92
2023-08-22T06:56:28.447Z,23.99
2023-08-22T06:58:56.499Z,24.02
2023-08-22T07:01:24.746Z,24.05
2023-08-22T07:04:06.347Z,24.09
2023-08-22T07:06:42.097Z,24.16
2023-08-22T07:09:13.151Z,24.24
2023-08-22T07:14:15.720Z,24.33
2023-08-22T07:16:44.277Z,24.40
2023-08-22T07:19:24.563Z,24.46
2023-08-22T07:22:00.585Z,24.53
2023-08-22T07:24:30.122Z,24.60
2023-08-22T07:27:01.333Z,24.59
2023-08-22T07:29:30.212Z,24.59
2023-08-22T07:32:01.473Z,24.58
2023-08-22T07:34:32.270Z,24.58
2023-08-22T07:37:02.786Z,24.58
2023-08-22T07:39:35.486Z,24.58
2023-08-22T07:42:05.339Z,24.58
2023-08-22T07:44:38.358Z,24.69
2023-08-22T07:47:10.047Z,24.75
2023-08-22T07:49:42.656Z,24.82
2023-08-22T07:52:13.081Z,24.90
2023-08-22T07:54:46.013Z,24.92
2023-08-22T07:57:19.338Z,24.95
2023-08-22T07:59:47.991Z,25.02
2023-08-22T08:02:18.766Z,25.06
2023-08-22T08:04:51.381Z,25.14
2023-08-22T08:07:21.834Z,25.21
2023-08-22T08:09:52.751Z,25.32
2023-08-22T08:12:20.919Z,25.32
2023-08-22T08:14:48.933Z,25.39
2023-08-22T08:17:24.650Z,25.49
2023-08-22T08:19:57.185Z,25.57
2023-08-22T08:22:26.019Z,25.67
2023-08-22T08:24:58.181Z,25.69
2023-08-22T08:27:26.554Z,25.71
2023-08-22T08:29:56.568Z,25.76
2023-08-22T08:32:30.452Z,25.81
2023-08-22T08:35:07.351Z,25.88
2023-08-22T08:37:40.845Z,25.95
2023-08-22T08:40:15.818Z,26.01
2023-08-22T08:42:44.906Z,26.09
2023-08-22T08:45:20.849Z,26.25
2023-08-22T08:47:53.390Z,26.27
2023-08-22T08:50:26.612Z,26.34
2023-08-22T08:52:56.069Z,26.42
2023-08-22T08:55:52.472Z,26.50
2023-08-22T08:58:23.687Z,26.52
2023-08-22T09:00:59.841Z,26.57
2023-08-22T09:03:33.450Z,26.64
2023-08-22T09:06:02.252Z,26.69
2023-08-22T09:08:40.829Z,26.72
2023-08-22T09:11:29.031Z,26.80
2023-08-22T09:14:02.197Z,26.88
2023-08-22T09:16:39.552Z,26.96
2023-08-22T09:19:11.170Z,27.01
2023-08-22T09:21:59.914Z,27.07
2023-08-22T09:24:32.061Z,27.14
2023-08-22T09:27:06.340Z,27.19
2023-08-22T09:29:52.184Z,27.26
2023-08-22T09:32:23.952Z,27.31
2023-08-22T09:35:02.156Z,27.42
2023-08-22T09:37:33.175Z,27.49
2023-08-22T09:40:11.917Z,27.54
2023-08-22T09:42:43.587Z,27.58
2023-08-22T09:45:16.891Z,27.65
2023-08-22T09:47:50.595Z,27.70
2023-08-22T09:50:22.789Z,27.79
2023-08-22T09:52:53.455Z,27.89
2023-08-22T09:55:22.969Z,28.03
2023-08-22T09:57:58.260Z,28.17
2023-08-22T10:00:31.842Z,28.34
2023-08-22T10:03:05.156Z,28.49
2023-08-22T10:05:36.809Z,28.59
2023-08-22T10:08:05.885Z,28.69
2023-08-22T10:10:34.832Z,28.80
2023-08-22T10:13:06.525Z,28.89
2023-08-22T10:15:36.602Z,28.98
2023-08-22T10:18:06.105Z,29.08
2023-08-22T10:20:39.780Z,29.10
2023-08-22T10:23:17.553Z,29.13
2023-08-22T10:25:49.510Z,29.18
2023-08-22T10:28:21.626Z,29.27
2023-08-22T10:31:07.987Z,29.15
2023-08-22T10:33:36.265Z,29.16
2023-08-22T10:36:11.169Z,29.12
2023-08-22T10:38:59.023Z,29.18
2023-08-22T10:41:45.849Z,29.30
2023-08-22T10:44:28.284Z,29.36
2023-08-22T10:47:00.700Z,29.29
2023-08-22T10:49:32.008Z,29.24
2023-08-22T10:52:07.686Z,29.17
2023-08-22T10:54:36.255Z,29.08
2023-08-22T10:57:20.157Z,29.17
2023-08-22T11:00:09.057Z,29.34
2023-08-22T11:02:38.907Z,29.51
2023-08-22T11:05:12.681Z,29.74
2023-08-22T11:07:51.912Z,29.90
2023-08-22T11:10:24.217Z,30.03
2023-08-22T11:12:58.048Z,30.22
2023-08-22T11:15:27.653Z,30.42
2023-08-22T11:17:59.473Z,30.51
2023-08-22T11:20:31.289Z,30.47
2023-08-22T11:23:05.214Z,30.20
2023-08-22T11:25:39.552Z,29.92
2023-08-22T11:28:33.199Z,29.82
2023-08-22T11:31:06.906Z,29.78
2023-08-22T11:33:38.668Z,29.85
2023-08-22T11:36:10.147Z,30.00
2023-08-22T11:38:38.440Z,30.19
2023-08-22T11:41:09.260Z,30.35
2023-08-22T11:43:41.872Z,30.49
2023-08-22T11:46:17.288Z,30.63
2023-08-22T11:48:45.692Z,30.82
2023-08-22T11:51:22.629Z,31.03
2023-08-22T11:53:53.304Z,31.17
2023-08-22T11:56:21.965Z,31.33
2023-08-22T11:58:56.967Z,31.45
2023-08-22T12:01:29.714Z,31.43
2023-08-22T12:03:58.910Z,31.41
2023-08-22T12:06:27.159Z,31.42
2023-08-22T12:09:02.317Z,31.40
2023-08-22T12:11:36.377Z,31.39
2023-08-22T12:14:04.706Z,31.45
2023-08-22T12:16:34.350Z,31.42
2023-08-22T12:19:12.362Z,31.51
2023-08-22T12:21:40.369Z,31.50
2023-08-22T12:24:10.551Z,31.62
2023-08-22T12:26:38.725Z,31.80
2023-08-22T12:29:09.534Z,32.02
2023-08-22T12:31:42.005Z,32.26
2023-08-22T12:34:13.028Z,32.45
2023-08-22T12:36:43.978Z,32.64
2023-08-22T12:39:15.086Z,32.74
2023-08-22T12:41:48.404Z,32.72
2023-08-22T12:44:16.677Z,32.83
2023-08-22T12:46:55.521Z,32.95
2023-08-22T12:49:25.779Z,33.08
2023-08-22T12:51:55.197Z,33.25
2023-08-22T12:54:26.025Z,33.38
2023-08-22T12:56:58.586Z,33.45
2023-08-22T12:59:28.480Z,33.54
2023-08-22T13:02:03.830Z,33.71
2023-08-22T13:04:38.986Z,33.82
2023-08-22T13:07:10.742Z,33.92
2023-08-22T13:09:41.512Z,34.21
2023-08-22T13:12:12.143Z,34.45
2023-08-22T13:14:40.329Z,34.55
2023-08-22T13:17:12.149Z,34.52
2023-08-22T13:19:43.198Z,34.69
2023-08-22T13:22:13.857Z,34.80
2023-08-22T13:24:46.522Z,34.82
2023-08-22T13:27:15.703Z,34.84
2023-08-22T13:29:43.984Z,34.89
2023-08-22T13:32:14.724Z,35.01
2023-08-22T13:34:44.346Z,35.12
2023-08-22T13:37:15.509Z,35.15
2023-08-22T13:39:44.899Z,35.10
2023-08-22T13:42:12.957Z,35.12
2023-08-22T13:44:45.130Z,35.33
2023-08-22T13:47:15.301Z,35.45
2023-08-22T13:49:43.846Z,35.56
2023-08-22T13:52:11.767Z,35.71
2023-08-22T13:54:41.462Z,35.76
2023-08-22T13:57:12.608Z,35.86
2023-08-22T13:59:42.054Z,35.85
2023-08-22T14:02:11.264Z,35.76
2023-08-22T14:04:41.152Z,35.85
2023-08-22T14:07:09.476Z,36.07
2023-08-22T14:09:37.941Z,36.43
2023-08-22T14:12:06.649Z,36.72
2023-08-22T14:14:36.776Z,36.95
2023-08-22T14:17:05.929Z,37.10
2023-08-22T14:19:35.467Z,37.30
2023-08-22T14:22:04.917Z,37.40
2023-08-22T14:24:32.937Z,37.47
2023-08-22T14:27:00.872Z,37.32
2023-08-22T14:29:31.644Z,37.11
2023-08-22T14:32:00.680Z,37.21
2023-08-22T14:34:32.234Z,37.50
2023-08-22T14:37:12.562Z,37.85
2023-08-22T14:39:55.561Z,38.16
2023-08-22T14:42:25.710Z,38.21
2023-08-22T14:44:54.007Z,38.11
2023-08-22T14:47:23.248Z,38.15
2023-08-22T14:49:51.450Z,38.43
2023-08-22T14:52:20.620Z,38.29
2023-08-22T14:54:50.187Z,38.28
2023-08-22T14:57:21.014Z,38.68
2023-08-22T14:59:49.334Z,38.95
2023-08-22T15:02:21.753Z,38.53
2023-08-22T15:04:51.754Z,37.88
2023-08-22T15:07:28.792Z,37.10
2023-08-22T15:09:58.413Z,36.53
2023-08-22T15:12:28.412Z,36.07
2023-08-22T15:15:01.105Z,35.56
2023-08-22T15:17:35.157Z,35.16
2023-08-22T15:20:06.653Z,34.93
2023-08-22T15:22:38.649Z,34.91
2023-08-22T15:25:09.654Z,34.89
2023-08-22T15:27:39.748Z,34.86
2023-08-22T15:30:13.129Z,34.86
2023-08-22T15:32:41.921Z,34.81
2023-08-22T15:35:13.867Z,34.94
2023-08-22T15:37:47.720Z,35.49
2023-08-22T15:40:17.241Z,35.81
2023-08-22T15:42:46.533Z,35.97
2023-08-22T15:45:14.826Z,36.01
2023-08-22T15:47:43.417Z,36.17
2023-08-22T15:50:13.271Z,36.38
2023-08-22T15:52:44.460Z,36.41
2023-08-22T15:55:12.953Z,36.64
2023-08-22T15:57:44.705Z,37.22
2023-08-22T16:00:15.205Z,37.54
2023-08-22T16:02:46.892Z,37.92
2023-08-22T16:05:15.616Z,37.83
2023-08-22T16:07:50.504Z,37.69
2023-08-22T16:10:19.043Z,37.67
2023-08-22T16:12:48.556Z,37.74
2023-08-22T16:15:27.875Z,38.15
2023-08-22T16:17:56.410Z,38.55
2023-08-22T16:20:26.189Z,38.95
2023-08-22T16:22:54.829Z,38.99
2023-08-22T16:25:25.526Z,38.82
2023-08-22T16:27:53.835Z,38.60
2023-08-22T16:30:26.895Z,38.12
2023-08-22T16:32:55.346Z,37.52
2023-08-22T16:35:23.315Z,37.08
2023-08-22T16:37:55.884Z,36.60
2023-08-22T16:40:24.203Z,36.25
2023-08-22T16:42:52.505Z,35.88
2023-08-22T16:45:21.524Z,35.76
2023-08-22T16:47:54.810Z,35.73
2023-08-22T16:50:23.365Z,35.77
2023-08-22T16:52:54.501Z,35.82
2023-08-22T16:55:26.319Z,35.97
2023-08-22T16:57:58.312Z,35.88
2023-08-22T17:00:30.314Z,35.45
2023-08-22T17:02:59.858Z,34.92
2023-08-22T17:05:30.687Z,34.48
2023-08-22T17:08:01.248Z,34.08
2023-08-22T17:10:30.360Z,33.69
2023-08-22T17:13:02.027Z,33.37
2023-08-22T17:15:31.604Z,33.09
2023-08-22T17:18:03.812Z,32.77
2023-08-22T17:20:32.398Z,32.53
2023-08-22T17:23:01.630Z,32.17
2023-08-22T17:25:29.658Z,31.91
2023-08-22T17:28:01.980Z,31.83
2023-08-22T17:30:31.581Z,31.68
2023-08-22T17:32:59.571Z,31.45
2023-08-22T17:35:29.211Z,31.17
2023-08-22T17:37:59.233Z,30.80
2023-08-22T17:40:27.820Z,30.54
2023-08-22T17:42:57.909Z,30.44
2023-08-22T17:45:26.608Z,30.28
2023-08-22T17:47:56.050Z,30.20
2023-08-22T17:50:24.232Z,30.07
2023-08-22T17:52:54.969Z,29.96
2023-08-22T17:55:26.133Z,29.88
2023-08-22T17:57:54.116Z,29.71
2023-08-22T18:00:25.392Z,29.59
2023-08-22T18:02:53.426Z,29.46
2023-08-22T18:05:22.148Z,29.40
2023-08-22T18:07:53.900Z,29.25
2023-08-22T18:10:21.994Z,29.13
2023-08-22T18:12:50.976Z,29.03
2023-08-22T18:15:19.264Z,28.87
2023-08-22T18:17:48.300Z,28.72
2023-08-22T18:20:16.432Z,28.62
2023-08-22T18:22:47.003Z,28.52
2023-08-22T18:25:17.130Z,28.41
2023-08-22T18:27:52.087Z,28.32
2023-08-22T18:30:21.914Z,28.20
2023-08-22T18:32:53.287Z,28.05
2023-08-22T18:35:22.426Z,27.95
2023-08-22T18:37:51.145Z,27.85
2023-08-22T18:40:21.380Z,27.76
2023-08-22T18:42:49.285Z,27.66
2023-08-22T18:45:18.137Z,27.57
2023-08-22T18:47:46.691Z,27.47
2023-08-22T18:50:16.091Z,27.40
2023-08-22T18:52:45.928Z,27.31
2023-08-22T18:55:14.624Z,27.23
2023-08-22T18:57:45.515Z,27.14
2023-08-22T19:00:19.844Z,27.04
2023-08-22T19:02:50.920Z,26.99
2023-08-22T19:05:22.378Z,26.92
2023-08-22T19:07:50.921Z,26.83
2023-08-22T19:10:20.109Z,26.77
2023-08-22T19:12:50.238Z,26.70
2023-08-22T19:15:21.020Z,26.64
2023-08-22T19:17:53.199Z,26.59
2023-08-22T19:20:21.414Z,26.53
2023-08-22T19:22:49.863Z,26.48
2023-08-22T19:25:17.917Z,26.42
2023-08-22T19:27:46.796Z,26.39
2023-08-22T19:30:17.901Z,26.31
2023-08-22T19:33:10.665Z,26.24
2023-08-22T19:35:39.148Z,26.21
2023-08-22T19:38:09.120Z,26.17
2023-08-22T19:40:46.330Z,26.17
2023-08-22T19:43:17.254Z,26.13
2023-08-22T19:45:47.398Z,26.07
2023-08-22T19:48:18.048Z,26.01
2023-08-22T19:50:47.257Z,25.96
2023-08-22T19:53:17.167Z,26.06
2023-08-22T19:55:45.646Z,25.99
2023-08-22T19:58:13.913Z,25.92
2023-08-22T20:00:42.906Z,25.87
2023-08-22T20:03:16.080Z,25.83
2023-08-22T20:05:45.431Z,25.76
2023-08-22T20:08:14.126Z,25.67
2023-08-22T20:10:42.353Z,25.63
2023-08-22T20:13:10.353Z,25.62
2023-08-22T20:15:39.665Z,25.58
2023-08-22T20:18:08.139Z,25.56
2023-08-22T20:20:39.247Z,25.51
2023-08-22T20:23:07.852Z,25.42
2023-08-22T20:25:37.735Z,25.35
2023-08-22T20:28:09.352Z,25.27
2023-08-22T20:30:37.550Z,25.18
2023-08-22T20:33:05.827Z,25.11
2023-08-22T20:35:36.807Z,25.04
2023-08-22T20:38:06.148Z,25.03
2023-08-22T20:40:34.375Z,25.00
2023-08-22T20:43:02.963Z,24.97
2023-08-22T20:45:31.144Z,24.87
2023-08-22T20:47:59.239Z,24.82
2023-08-22T20:50:28.218Z,24.79
2023-08-22T20:52:56.533Z,24.75
2023-08-22T20:55:26.589Z,24.72
2023-08-22T20:57:56.451Z,24.66
2023-08-22T21:00:25.284Z,24.59
2023-08-22T21:02:54.586Z,24.53
2023-08-22T21:05:23.053Z,24.48
2023-08-22T21:07:51.625Z,24.44
2023-08-22T21:10:23.174Z,24.40
2023-08-22T21:12:53.191Z,24.38
2023-08-22T21:15:27.197Z,24.34
2023-08-22T21:17:55.558Z,24.34
2023-08-22T21:20:23.649Z,24.31
2023-08-22T21:22:51.821Z,24.22
2023-08-22T21:25:20.390Z,24.21
2023-08-22T21:27:50.631Z,24.19
2023-08-22T21:30:24.708Z,24.18
2023-08-22T21:32:54.369Z,24.16
2023-08-22T21:35:24.945Z,24.13
2023-08-22T21:37:54.147Z,24.10
2023-08-22T21:40:22.446Z,24.07
2023-08-22T21:42:51.000Z,24.00
2023-08-22T21:45:20.538Z,23.95
2023-08-22T21:47:50.368Z,23.90
2023-08-22T21:50:20.883Z,23.87
2023-08-22T21:52:50.545Z,23.80
2023-08-22T21:55:18.938Z,23.77
2023-08-22T21:57:47.725Z,23.77
2023-08-22T22:00:17.099Z,23.68
2023-08-22T22:02:46.965Z,23.68
2023-08-22T22:05:20.884Z,23.64
2023-08-22T22:07:49.568Z,23.61
2023-08-22T22:10:19.033Z,23.58
2023-08-22T22:12:48.765Z,23.56
2023-08-22T22:15:17.857Z,23.54
2023-08-22T22:17:46.320Z,23.52
2023-08-22T22:20:16.161Z,23.47
2023-08-22T22:22:46.823Z,23.46
2023-08-22T22:25:15.249Z,23.44
2023-08-22T22:27:47.000Z,23.38
2023-08-22T22:30:15.935Z,23.36
2023-08-22T22:32:45.619Z,23.33
2023-08-22T22:35:14.203Z,23.32
2023-08-22T22:37:45.179Z,23.32
2023-08-22T22:40:17.561Z,23.28
2023-08-22T22:42:49.907Z,23.27
2023-08-22T22:45:21.616Z,23.23
2023-08-22T22:47:50.263Z,23.19
2023-08-22T22:50:18.846Z,23.15
2023-08-22T22:52:49.338Z,23.08
2023-08-22T22:55:19.676Z,23.06
2023-08-22T22:57:47.959Z,22.99
2023-08-22T23:00:17.910Z,22.96
2023-08-22T23:02:47.235Z,22.92
2023-08-22T23:05:17.352Z,22.88
2023-08-22T23:07:46.583Z,22.81
2023-08-22T23:10:17.048Z,22.79
2023-08-22T23:12:48.039Z,22.75
2023-08-22T23:15:18.525Z,22.75
2023-08-22T23:17:47.571Z,22.71
2023-08-22T23:20:22.313Z,22.71
2023-08-22T23:22:52.081Z,22.64
2023-08-22T23:25:20.708Z,22.60
2023-08-22T23:27:50.953Z,22.57
2023-08-22T23:30:20.925Z,22.55
2023-08-22T23:32:50.869Z,22.54
2023-08-22T23:35:19.780Z,22.52
2023-08-22T23:37:51.224Z,22.51
2023-08-22T23:40:26.119Z,22.50
2023-08-22T23:43:08.929Z,22.46
2023-08-22T23:45:37.506Z,22.37
2023-08-22T23:48:06.371Z,22.40
2023-08-22T23:50:35.081Z,22.40
2023-08-22T23:53:03.926Z,22.38
2023-08-22T23:55:33.796Z,22.38
2023-08-22T23:58:04.270Z,22.37
